Jacky X — PG2067 — position and weather

sailwx.info

Track history (hours):
 
Tides and Currents Weather Stations Pressure Air Temp Water Temp Dewpoint Dewpoint Depression Visibility Wind Speed Wind Dir Waves Ship Positions

Jacky X

Last reported at 2018-Jun-07 21:41 UTC. Time now 2018-Jun-19 12:43 UTC.
Position N 40°43' W 074°03'.
Warning: this ship's position is 11 days out of date.

Length 13 m.

Type: Sailing vessel. MMSI: 244740573.

Date/timePositionNaut miles runAvg speedWind from/ knotsBaromVisibWave heightAir tempDewpointWater temp
2018-Jun-07 21:41N 40°43' W 074°03'0 0.0
2018-Jun-07 21:29N 40°43' W 074°03'0 0.0
2018-Jun-07 20:58N 40°43' W 074°03'0 0.0
2018-Jun-07 20:29N 40°43' W 074°03'0 0.0
2018-Jun-07 19:59N 40°43' W 074°03'0 0.0
2018-Jun-07 19:29N 40°43' W 074°03'1 1.8
2018-Jun-07 18:59N 40°42' W 074°02'1 2.0
2018-Jun-07 18:29N 40°41' W 074°03'1 2.9
2018-Jun-07 18:00N 40°40' W 074°02'49 1.0
2018-Jun-05 18:04N 39°51' W 074°02'1 7.5
2018-Jun-05 17:55N 39°50' W 074°02'3 7.4
2018-Jun-05 17:30N 39°47' W 074°03'4 7.5
2018-Jun-05 17:00N 39°43' W 074°04'4 7.5
2018-Jun-05 16:29N 39°39' W 074°05'4 7.2
2018-Jun-05 15:59N 39°36' W 074°05'3 7.1
2018-Jun-05 15:30N 39°32' W 074°07'  
2018-Jun-02 16:54N 39°03' W 075°10'3 6.4
2018-Jun-02 16:26N 39°06' W 075°12'3 6.3
2018-Jun-02 16:00N 39°08' W 075°14'3 6.3
2018-Jun-02 15:30N 39°11' W 075°16'3 6.7
2018-Jun-02 14:59N 39°14' W 075°18'4 7.2
2018-Jun-02 14:29N 39°17' W 075°21'3 7.3
2018-Jun-02 14:00N 39°19' W 075°25'4 8.1
2018-Jun-02 13:30N 39°22' W 075°28'4 8.6
2018-Jun-02 13:00N 39°26' W 075°31'4 8.2
2018-Jun-02 12:30N 39°29' W 075°34'4 8.6
2018-Jun-02 12:00N 39°33' W 075°33'3 6.5
2018-Jun-02 11:30N 39°33' W 075°37'3 6.1
2018-Jun-02 11:00N 39°33' W 075°41'3 5.9
2018-Jun-02 10:30N 39°32' W 075°45'3 5.5
2018-Jun-02 10:00N 39°32' W 075°49'0 0.0
2018-Jun-01 20:42N 39°32' W 075°49'0 1.7
2018-Jun-01 20:29N 39°32' W 075°49'3 5.7
2018-Jun-01 20:00N 39°31' W 075°53'3 6.0
2018-Jun-01 19:29N 39°29' W 075°56'3 6.4
2018-Jun-01 18:59N 39°27' W 075°59'3 6.3
2018-Jun-01 18:27N 39°25' W 076°02'29 6.3
2018-Jun-01 13:54N 39°01' W 076°22'3 6.9
2018-Jun-01 13:26N 38°58' W 076°25'3 6.1
2018-Jun-01 13:00N 38°58' W 076°28'0 0.9
2018-Jun-01 12:31N 38°58' W 076°29'  
Track history (hours):
 
Tides and Currents Weather Stations Pressure Air Temp Water Temp Dewpoint Dewpoint Depression Visibility Wind Speed Wind Dir Waves Ship Positions

Jacky X

Last reported at 2018-Jun-07 21:41 UTC. Time now 2018-Jun-19 12:43 UTC.
Position N 40°43' W 074°03'.
Warning: this ship's position is 11 days out of date.

Length 13 m.

Type: Sailing vessel. MMSI: 244740573.

Date/timePositionNaut miles runAvg speedWind from/ knotsBaromVisibWave heightAir tempDewpointWater temp
2018-Jun-07 21:41N 40°43' W 074°03'0 0.0
2018-Jun-07 21:29N 40°43' W 074°03'0 0.0
2018-Jun-07 20:58N 40°43' W 074°03'0 0.0
2018-Jun-07 20:29N 40°43' W 074°03'0 0.0
2018-Jun-07 19:59N 40°43' W 074°03'0 0.0
2018-Jun-07 19:29N 40°43' W 074°03'1 1.8
2018-Jun-07 18:59N 40°42' W 074°02'1 2.0
2018-Jun-07 18:29N 40°41' W 074°03'1 2.9
2018-Jun-07 18:00N 40°40' W 074°02'49 1.0
2018-Jun-05 18:04N 39°51' W 074°02'1 7.5
2018-Jun-05 17:55N 39°50' W 074°02'3 7.4
2018-Jun-05 17:30N 39°47' W 074°03'4 7.5
2018-Jun-05 17:00N 39°43' W 074°04'4 7.5
2018-Jun-05 16:29N 39°39' W 074°05'4 7.2
2018-Jun-05 15:59N 39°36' W 074°05'3 7.1
2018-Jun-05 15:30N 39°32' W 074°07'  
2018-Jun-02 16:54N 39°03' W 075°10'3 6.4
2018-Jun-02 16:26N 39°06' W 075°12'3 6.3
2018-Jun-02 16:00N 39°08' W 075°14'3 6.3
2018-Jun-02 15:30N 39°11' W 075°16'3 6.7
2018-Jun-02 14:59N 39°14' W 075°18'4 7.2
2018-Jun-02 14:29N 39°17' W 075°21'3 7.3
2018-Jun-02 14:00N 39°19' W 075°25'4 8.1
2018-Jun-02 13:30N 39°22' W 075°28'4 8.6
2018-Jun-02 13:00N 39°26' W 075°31'4 8.2
2018-Jun-02 12:30N 39°29' W 075°34'4 8.6
2018-Jun-02 12:00N 39°33' W 075°33'3 6.5
2018-Jun-02 11:30N 39°33' W 075°37'3 6.1
2018-Jun-02 11:00N 39°33' W 075°41'3 5.9
2018-Jun-02 10:30N 39°32' W 075°45'3 5.5
2018-Jun-02 10:00N 39°32' W 075°49'0 0.0
2018-Jun-01 20:42N 39°32' W 075°49'0 1.7
2018-Jun-01 20:29N 39°32' W 075°49'3 5.7
2018-Jun-01 20:00N 39°31' W 075°53'3 6.0
2018-Jun-01 19:29N 39°29' W 075°56'3 6.4
2018-Jun-01 18:59N 39°27' W 075°59'3 6.3
2018-Jun-01 18:27N 39°25' W 076°02'29 6.3
2018-Jun-01 13:54N 39°01' W 076°22'3 6.9
2018-Jun-01 13:26N 38°58' W 076°25'3 6.1
2018-Jun-01 13:00N 38°58' W 076°28'0 0.9
2018-Jun-01 12:31N 38°58' W 076°29'  

Dump ship's entire track history